Time;durP1;ratioP1;P1;durP2;ratioP2;P2;SDS_P1;SDS_P2;PMS_P1;PMS_P2;Temp;Humidity;BMP_temperature;BMP_pressure;BME280_temperature;BME280_humidity;BME280_pressure;Samples;Min_cycle;Max_cycle;Signal;HPM_P1;HPM_P2
2022/04/16 00:01:28;;;;;;;39.10;31.95;;;;;;;30.03;79.78;100706.88;5024185;28;66734;-33
2022/04/16 00:03:59;;;;;;;30.60;27.48;;;;;;;30.08;80.29;100719.75;5033591;28;69388;-33
2022/04/16 00:06:30;;;;;;;37.10;26.90;;;;;;;30.14;80.29;100719.69;5031071;28;66211;-32
2022/04/16 00:09:01;;;;;;;33.07;28.23;;;;;;;30.12;79.47;100719.09;5023157;28;69972;-31
2022/04/16 00:11:31;;;;;;;38.08;30.77;;;;;;;30.16;79.76;100724.91;5032197;28;66595;-33
2022/04/16 00:14:05;;;;;;;37.80;33.38;;;;;;;30.19;79.43;100730.69;5030849;28;70157;-32
2022/04/16 00:16:36;;;;;;;34.38;30.55;;;;;;;30.21;78.89;100733.19;5028566;28;66145;-33
2022/04/16 00:19:11;;;;;;;35.30;30.90;;;;;;;30.27;78.97;100744.00;5030373;28;69062;-31
2022/04/16 00:21:42;;;;;;;36.10;29.63;;;;;;;30.31;79.17;100740.84;5025976;28;65378;-32
2022/04/16 00:24:13;;;;;;;33.33;28.25;;;;;;;30.37;78.42;100751.63;5023225;28;70707;-33
2022/04/16 00:26:46;;;;;;;34.53;27.33;;;;;;;30.43;78.02;100758.03;5036303;28;65475;-32
2022/04/16 00:29:17;;;;;;;29.02;24.05;;;;;;;30.57;75.04;100751.47;5031029;28;69948;-35
2022/04/16 00:31:48;;;;;;;21.85;19.95;;;;;;;30.58;74.10;100739.56;5026402;28;67417;-34
2022/04/16 00:34:19;;;;;;;22.15;19.77;;;;;;;30.75;73.00;100752.56;5024671;28;69938;-34
2022/04/16 00:36:50;;;;;;;22.67;20.55;;;;;;;30.82;72.99;100758.78;5015871;28;66506;-34
2022/04/16 00:39:21;;;;;;;22.42;20.08;;;;;;;30.87;72.04;100761.63;5026605;28;68952;-37
2022/04/16 00:41:52;;;;;;;21.38;19.52;;;;;;;30.89;71.90;100752.22;5029880;28;65223;-33
2022/04/16 00:44:23;;;;;;;20.38;18.67;;;;;;;31.01;71.42;100771.31;5028386;28;69839;-34
2022/04/16 00:46:54;;;;;;;20.30;18.70;;;;;;;31.04;71.33;100767.31;5045914;28;65943;-34
2022/04/16 00:49:25;;;;;;;21.67;19.65;;;;;;;31.06;70.87;100771.44;5025783;28;69222;-33
2022/04/16 00:51:55;;;;;;;22.20;19.83;;;;;;;31.16;70.43;100784.47;5028846;28;65269;-32
2022/04/16 00:54:26;;;;;;;22.23;20.25;;;;;;;31.16;70.51;100785.28;5025004;28;70150;-33
2022/04/16 00:56:57;;;;;;;20.88;19.08;;;;;;;31.19;69.94;100780.50;5028508;28;66396;-33
2022/04/16 00:59:28;;;;;;;20.98;19.08;;;;;;;31.27;69.71;100785.63;5023966;28;69981;-33
2022/04/16 01:01:59;;;;;;;22.45;20.25;;;;;;;31.33;69.57;100803.69;5027730;28;65583;-34
2022/04/16 01:04:31;;;;;;;22.10;19.25;;;;;;;31.34;69.30;100794.47;5029897;28;70419;-33
2022/04/16 01:07:02;;;;;;;23.10;20.73;;;;;;;31.12;69.61;100751.59;5026604;28;66072;-33
2022/04/16 01:09:33;;;;;;;22.35;20.23;;;;;;;31.38;69.40;100809.28;5031194;28;69218;-34
2022/04/16 01:12:05;;;;;;;22.27;20.35;;;;;;;31.41;69.34;100810.72;5030471;28;66317;-32
2022/04/16 01:14:37;;;;;;;;;;;;;;;31.09;70.49;100799.97;5028523;28;69393;-33
2022/04/16 01:17:09;;;;;;;22.40;20.15;;;;;;;31.40;69.36;100804.47;5025526;28;66411;-33
2022/04/16 01:19:41;;;;;;;22.75;20.45;;;;;;;31.43;68.80;100808.63;5024740;28;68961;-34
2022/04/16 01:22:12;;;;;;;;;;;;;;;31.13;70.41;100810.13;5028379;28;66093;-34
2022/04/16 01:24:54;;;;;;;22.20;20.27;;;;;;;31.45;68.47;100812.72;5030986;28;70395;-34
2022/04/16 01:27:24;;;;;;;22.77;20.67;;;;;;;31.47;68.65;100813.34;5019685;28;65695;-34
2022/04/16 01:29:57;;;;;;;22.70;20.50;;;;;;;31.55;68.13;100823.88;5023087;28;69527;-33
2022/04/16 01:32:28;;;;;;;22.88;20.60;;;;;;;31.56;68.32;100817.41;5022224;28;66180;-34
2022/04/16 01:35:00;;;;;;;22.52;20.48;;;;;;;31.57;67.89;100820.97;5027310;28;69603;-35
2022/04/16 01:37:34;;;;;;;21.25;19.30;;;;;;;31.60;67.68;100826.75;5025294;28;64556;-34
2022/04/16 01:40:08;;;;;;;22.67;20.55;;;;;;;31.37;67.57;100783.22;5022066;28;69195;-34
2022/04/16 01:42:39;;;;;;;20.90;19.23;;;;;;;31.65;67.54;100823.38;5021080;28;66741;-33
2022/04/16 01:45:11;;;;;;;21.08;19.42;;;;;;;31.36;67.22;100774.25;5024753;28;71385;-34
2022/04/16 01:47:42;;;;;;;21.27;19.55;;;;;;;31.69;67.16;100823.75;5024735;28;66496;-33
2022/04/16 01:50:13;;;;;;;21.08;19.00;;;;;;;31.63;66.69;100808.38;5028368;28;69392;-34
2022/04/16 01:52:44;;;;;;;20.47;18.67;;;;;;;31.73;67.00;100822.22;5025195;28;66386;-33
2022/04/16 01:55:15;;;;;;;20.48;18.48;;;;;;;31.75;66.36;100828.25;5025397;28;69694;-33
2022/04/16 01:57:46;;;;;;;18.95;17.55;;;;;;;31.77;65.99;100826.16;5027051;28;67176;-34
2022/04/16 02:00:19;;;;;;;18.98;17.48;;;;;;;31.81;66.04;100816.47;5025202;28;69485;-33
2022/04/16 02:02:50;;;;;;;20.08;18.27;;;;;;;31.82;66.34;100816.25;5024749;28;66950;-34
2022/04/16 02:05:22;;;;;;;18.80;17.07;;;;;;;31.71;66.24;100794.53;5024152;28;68832;-33
2022/04/16 02:07:54;;;;;;;19.58;17.88;;;;;;;31.78;66.16;100803.38;5026911;28;65282;-34
2022/04/16 02:10:25;;;;;;;18.55;17.15;;;;;;;31.86;66.18;100819.34;5029751;28;69496;-33
2022/04/16 02:12:56;;;;;;;19.77;18.25;;;;;;;31.89;65.92;100824.31;5025534;28;66177;-34
2022/04/16 02:15:27;;;;;;;20.05;18.13;;;;;;;31.86;66.12;100816.63;5024955;28;69837;-34
2022/04/16 02:17:58;;;;;;;20.25;18.33;;;;;;;31.86;65.94;100813.91;5034657;28;66076;-40
2022/04/16 02:20:29;;;;;;;19.40;17.98;;;;;;;31.91;65.60;100816.81;5037901;28;69657;-36
2022/04/16 02:23:00;;;;;;;19.40;17.65;;;;;;;31.97;65.59;100826.72;5037621;28;65637;-33
2022/04/16 02:25:33;;;;;;;19.35;17.65;;;;;;;31.98;65.42;100822.13;5038410;28;69877;-33
2022/04/16 02:28:04;;;;;;;24.95;16.70;;;;;;;31.95;65.36;100817.16;5037286;28;65440;-34
2022/04/16 02:30:35;;;;;;;18.13;16.75;;;;;;;31.94;65.40;100813.63;5026492;28;70679;-36
2022/04/16 02:33:06;;;;;;;18.90;16.95;;;;;;;32.02;65.10;100829.59;5019568;28;65534;-33
2022/04/16 02:35:38;;;;;;;17.83;16.70;;;;;;;32.01;64.71;100830.66;5021028;28;69655;-33
2022/04/16 02:38:09;;;;;;;18.15;16.85;;;;;;;32.01;65.23;100833.38;5029348;28;66150;-34
2022/04/16 02:40:40;;;;;;;18.65;17.10;;;;;;;32.11;64.36;100837.41;5030303;28;69115;-34
2022/04/16 02:43:11;;;;;;;17.27;16.00;;;;;;;32.04;64.57;100822.06;5034055;28;66263;-34
2022/04/16 02:48:33;;;;;;;17.67;16.33;;;;;;;32.16;63.84;100829.41;5021675;28;67275;-34
2022/04/16 02:51:04;;;;;;;17.33;15.75;;;;;;;32.20;63.91;100836.03;5022185;28;70511;-33
2022/04/16 02:53:36;;;;;;;17.73;16.55;;;;;;;32.25;63.78;100828.03;5022144;28;66527;-34
2022/04/16 02:56:08;;;;;;;18.30;16.98;;;;;;;32.17;63.77;100821.03;5035157;28;68930;-33
2022/04/16 02:58:39;;;;;;;18.00;16.67;;;;;;;32.15;63.66;100806.03;5021194;28;65680;-33
2022/04/16 03:01:10;;;;;;;19.43;17.63;;;;;;;32.28;63.51;100828.38;5032091;28;69193;-35
2022/04/16 03:03:41;;;;;;;17.80;16.60;;;;;;;32.18;63.39;100794.72;5041239;28;67074;-34
2022/04/16 03:06:14;;;;;;;19.20;17.85;;;;;;;32.33;63.33;100811.41;5039573;28;68484;-34
2022/04/16 03:08:45;;;;;;;17.73;16.50;;;;;;;32.38;63.34;100808.00;5038263;28;65834;-33
2022/04/16 03:11:16;;;;;;;17.40;16.10;;;;;;;32.40;63.06;100809.44;5032527;28;69290;-34
2022/04/16 03:13:47;;;;;;;17.13;15.80;;;;;;;32.34;62.82;100788.63;5035562;28;65118;-35
2022/04/16 03:19:08;;;;;;;17.75;16.55;;;;;;;32.44;62.81;100793.50;5041486;28;65947;-34
2022/04/16 03:21:39;;;;;;;17.48;16.20;;;;;;;32.29;62.71;100758.66;5035055;28;70328;-34
2022/04/16 03:24:10;;;;;;;17.97;16.43;;;;;;;32.49;62.69;100789.06;5020931;28;65461;-33
2022/04/16 03:26:42;;;;;;;18.63;16.75;;;;;;;32.58;62.62;100788.72;5021931;28;70080;-34
2022/04/16 03:29:14;;;;;;;17.75;16.27;;;;;;;32.59;62.34;100791.19;5022165;28;66643;-34
2022/04/16 03:31:45;;;;;;;17.70;16.25;;;;;;;32.49;62.34;100775.47;5022463;28;70122;-33
2022/04/16 03:34:16;;;;;;;17.75;16.35;;;;;;;32.60;62.13;100781.16;5021907;28;65637;-37
2022/04/16 03:36:47;;;;;;;17.52;16.50;;;;;;;32.64;62.21;100783.16;5021495;28;71332;-35
2022/04/16 03:39:20;;;;;;;18.67;17.05;;;;;;;32.68;62.26;100778.06;5022080;28;66468;-34
2022/04/16 03:41:52;;;;;;;18.33;17.00;;;;;;;32.70;62.07;100787.66;5020839;28;70526;-34
2022/04/16 03:44:24;;;;;;;18.52;17.13;;;;;;;32.71;62.03;100777.63;5025562;28;66369;-34
2022/04/16 03:46:54;;;;;;;17.75;16.42;;;;;;;32.73;61.82;100775.50;5020555;28;69956;-33
2022/04/16 03:49:26;;;;;;;18.43;16.97;;;;;;;32.68;61.78;100762.63;5033767;28;66650;-33
2022/04/16 03:51:57;;;;;;;18.30;17.05;;;;;;;32.73;61.76;100764.63;5021067;28;70423;-36
2022/04/16 04:00:08;;;;;;;17.48;16.13;;;;;;;32.47;61.67;100698.84;5038787;28;66701;-35
2022/04/16 04:02:40;;;;;;;18.10;16.77;;;;;;;32.78;61.68;100729.44;5041035;28;69799;-34
2022/04/16 04:05:11;;;;;;;18.83;17.40;;;;;;;32.80;61.83;100743.63;5028029;28;66526;-33
2022/04/16 04:07:42;;;;;;;19.30;17.85;;;;;;;32.82;61.46;100736.06;5037871;28;70177;-34
2022/04/16 04:10:13;;;;;;;19.15;17.48;;;;;;;32.83;61.58;100735.00;5026946;28;66703;-34
2022/04/16 04:12:45;;;;;;;19.50;17.80;;;;;;;32.85;61.34;100723.91;5021142;28;69302;-34
2022/04/16 04:15:16;;;;;;;18.80;17.40;;;;;;;32.86;61.36;100736.41;5029001;28;67103;-36
2022/04/16 04:17:48;;;;;;;18.97;17.20;;;;;;;32.85;61.26;100735.59;5039962;28;69316;-33
2022/04/16 04:20:19;;;;;;;20.52;18.45;;;;;;;32.89;60.92;100725.88;5030840;28;65737;-33
2022/04/16 04:22:50;;;;;;;20.20;18.42;;;;;;;32.78;60.88;100707.69;5020621;28;70516;-33
2022/04/16 04:25:22;;;;;;;18.73;17.23;;;;;;;32.92;60.91;100719.97;5021242;28;68094;-33
2022/04/16 04:27:53;;;;;;;19.42;17.63;;;;;;;32.77;60.84;100700.63;5029655;28;70114;-34
2022/04/16 04:30:24;;;;;;;19.55;17.95;;;;;;;32.96;60.92;100708.63;5029153;28;65438;-34
2022/04/16 04:32:57;;;;;;;19.25;17.48;;;;;;;32.95;60.80;100718.66;5020394;28;69419;-34
2022/04/16 04:35:28;;;;;;;19.60;17.70;;;;;;;32.96;60.77;100709.47;5020391;28;66133;-34
2022/04/16 04:37:59;;;;;;;19.70;18.00;;;;;;;32.91;60.82;100696.59;5019732;28;69576;-34
2022/04/16 04:40:30;;;;;;;18.58;17.10;;;;;;;33.01;60.68;100692.47;5016958;28;65612;-34
2022/04/16 04:43:01;;;;;;;19.77;18.00;;;;;;;32.90;60.63;100665.06;5029588;28;69765;-34
2022/04/16 04:45:32;;;;;;;19.00;17.70;;;;;;;33.00;60.61;100678.06;5022841;28;66414;-35
2022/04/16 04:48:04;;;;;;;18.45;17.15;;;;;;;33.02;60.45;100661.53;5028007;28;70529;-33
2022/04/16 04:50:36;;;;;;;19.10;17.52;;;;;;;32.99;60.40;100653.78;5039179;28;65317;-33
2022/04/16 04:53:07;;;;;;;20.30;18.45;;;;;;;33.05;60.46;100658.31;5039176;28;69092;-33
2022/04/16 04:55:38;;;;;;;19.60;17.38;;;;;;;33.03;60.31;100639.53;5037996;28;66328;-34
2022/04/16 04:58:09;;;;;;;19.17;17.50;;;;;;;33.04;60.44;100629.47;5027764;28;69471;-34
2022/04/16 05:00:46;;;;;;;18.95;17.35;;;;;;;33.04;60.16;100614.03;5020856;28;66064;-33
2022/04/16 05:03:18;;;;;;;18.98;17.48;;;;;;;33.18;60.22;100628.13;5019355;28;69670;-34
2022/04/16 05:05:49;;;;;;;18.92;17.30;;;;;;;33.21;59.78;100608.66;5038596;28;65892;-32
2022/04/16 05:08:23;;;;;;;18.83;17.23;;;;;;;33.23;60.05;100617.34;5039957;28;70258;-34
2022/04/16 05:10:54;;;;;;;20.27;18.60;;;;;;;33.26;59.97;100622.31;5033851;28;66752;-33
2022/04/16 05:13:25;;;;;;;18.63;17.03;;;;;;;33.27;59.90;100623.97;5032955;28;70133;-34
2022/04/16 05:15:56;;;;;;;19.05;17.65;;;;;;;33.31;60.08;100630.56;5029277;28;66326;-33
2022/04/16 05:18:34;;;;;;;18.73;17.13;;;;;;;33.33;59.69;100617.56;5039676;28;70317;-35
2022/04/16 05:21:06;;;;;;;19.58;17.85;;;;;;;33.27;59.73;100601.41;5025574;28;66611;-33
2022/04/16 05:23:41;;;;;;;19.15;17.27;;;;;;;33.33;59.75;100584.94;5037013;28;69992;-35
2022/04/16 05:26:14;;;;;;;19.25;17.40;;;;;;;33.12;59.36;100539.41;5029391;28;65418;-34
2022/04/16 05:28:46;;;;;;;17.80;16.50;;;;;;;33.36;59.36;100570.84;5019443;28;69982;-33
2022/04/16 05:31:20;;;;;;;18.27;16.70;;;;;;;33.40;59.43;100573.06;5020638;28;65541;-33
2022/04/16 05:36:50;;;;;;;17.35;16.05;;;;;;;33.51;59.14;100593.94;5038888;28;66522;-34
2022/04/16 05:39:25;;;;;;;18.73;17.17;;;;;;;33.45;59.19;100556.84;5039077;28;69853;-35
2022/04/16 05:41:59;;;;;;;18.60;17.00;;;;;;;33.56;59.49;100572.31;5037540;28;65408;-33
2022/04/16 05:44:33;;;;;;;18.92;17.23;;;;;;;33.62;59.11;100565.88;5025385;28;69801;-34
2022/04/16 05:47:05;;;;;;;19.17;17.45;;;;;;;33.63;59.20;100551.22;5043523;28;66740;-33
2022/04/16 05:49:37;;;;;;;24.40;22.02;;;;;;;33.38;59.61;100541.53;5026673;28;70741;-33
2022/04/16 05:52:11;;;;;;;23.00;20.92;;;;;;;33.18;60.20;100543.88;5023950;28;66060;-33
2022/04/16 05:54:45;;;;;;;23.00;20.90;;;;;;;32.93;60.75;100520.59;5021070;28;70282;-35
2022/04/16 05:57:17;;;;;;;23.60;21.20;;;;;;;33.09;60.85;100558.94;5028304;28;66250;-34
2022/04/16 05:59:50;;;;;;;23.48;21.48;;;;;;;33.01;61.06;100560.13;5024035;28;70107;-34
2022/04/16 06:02:23;;;;;;;23.67;21.33;;;;;;;33.00;61.17;100546.81;5028499;28;66326;-34
2022/04/16 06:04:55;;;;;;;22.85;20.50;;;;;;;32.94;61.64;100562.97;5026128;28;69204;-36
2022/04/16 06:07:28;;;;;;;21.73;19.73;;;;;;;32.92;61.71;100562.38;5026631;28;65358;-34
2022/04/16 06:09:59;;;;;;;22.48;20.02;;;;;;;32.85;61.94;100572.59;5025375;28;70101;-35
2022/04/16 06:12:30;;;;;;;20.17;18.63;;;;;;;32.82;62.33;100556.78;5024894;28;66175;-34
2022/04/16 06:15:03;;;;;;;21.50;19.52;;;;;;;32.73;62.20;100550.06;5019880;28;71209;-34
2022/04/16 06:17:35;;;;;;;23.38;21.08;;;;;;;32.77;62.74;100578.41;5024414;28;65974;-33
2022/04/16 06:20:07;;;;;;;;;;;;;;;32.47;63.30;100581.28;5019730;28;70366;-34
2022/04/16 06:22:39;;;;;;;21.70;19.95;;;;;;;32.72;62.67;100581.00;5020040;28;65281;-35
2022/04/16 06:25:10;;;;;;;21.67;19.35;;;;;;;32.62;62.73;100567.22;5018621;28;70140;-33
2022/04/16 06:27:43;;;;;;;21.13;19.10;;;;;;;32.70;62.45;100578.50;5033168;28;64977;-34
2022/04/16 06:30:15;;;;;;;20.30;18.60;;;;;;;32.63;62.57;100547.16;5027881;28;70654;-34
2022/04/16 06:32:46;;;;;;;21.20;19.17;;;;;;;32.65;63.11;100564.84;5018575;28;65593;-32
2022/04/16 06:35:17;;;;;;;19.73;18.17;;;;;;;32.66;62.96;100579.25;5017710;28;70246;-34
2022/04/16 06:37:50;;;;;;;18.77;17.17;;;;;;;32.65;63.02;100574.88;5023852;28;65826;-34
2022/04/16 06:40:21;;;;;;;17.77;16.33;;;;;;;32.53;63.23;100552.34;5039084;28;70800;-34
2022/04/16 06:42:53;;;;;;;18.35;16.65;;;;;;;32.62;63.43;100550.91;5037734;28;66233;-34
2022/04/16 06:45:24;;;;;;;18.85;17.08;;;;;;;32.52;62.87;100532.53;5019066;28;70050;-32
2022/04/16 06:47:55;;;;;;;17.73;16.45;;;;;;;32.58;63.43;100528.84;5030953;28;66663;-33
2022/04/16 06:50:26;;;;;;;18.17;16.60;;;;;;;32.56;63.48;100541.00;5018962;28;70410;-34
2022/04/16 06:52:58;;;;;;;16.52;15.23;;;;;;;32.55;63.14;100540.19;5032640;28;66086;-34
2022/04/16 06:55:28;;;;;;;16.17;15.02;;;;;;;32.55;63.38;100539.38;5036972;28;70111;-35
2022/04/16 06:57:59;;;;;;;17.15;15.75;;;;;;;32.54;63.33;100543.13;5036600;28;65016;-37
2022/04/16 07:00:31;;;;;;;17.10;15.88;;;;;;;32.52;63.66;100553.44;5037020;28;69247;-33
2022/04/16 07:03:02;;;;;;;16.60;15.45;;;;;;;32.49;63.26;100546.59;5036585;28;65414;-35
2022/04/16 07:05:34;;;;;;;17.45;15.20;;;;;;;32.44;63.40;100549.97;5037161;28;68822;-36
2022/04/16 07:08:05;;;;;;;17.33;15.68;;;;;;;32.48;63.49;100550.34;5030598;28;65536;-34
2022/04/16 07:10:36;;;;;;;16.03;14.83;;;;;;;32.40;63.73;100545.25;5024160;28;70526;-33
2022/04/16 07:13:07;;;;;;;17.80;16.20;;;;;;;32.45;63.62;100546.19;5022550;28;66047;-33
2022/04/16 07:15:39;;;;;;;15.80;14.63;;;;;;;32.45;63.71;100557.06;5017995;28;69201;-33
2022/04/16 07:18:10;;;;;;;17.02;15.52;;;;;;;32.28;63.83;100551.53;5020095;28;66762;-33
2022/04/16 07:20:45;;;;;;;16.83;15.30;;;;;;;32.44;63.77;100577.13;5023010;28;69814;-34
2022/04/16 07:23:16;;;;;;;16.38;15.23;;;;;;;32.12;63.97;100529.72;5023840;28;66201;-32
2022/04/16 07:25:47;;;;;;;15.65;14.63;;;;;;;32.34;63.89;100548.94;5023793;28;69811;-34
2022/04/16 07:28:21;;;;;;;16.20;15.07;;;;;;;32.40;63.76;100554.25;5025170;28;66746;-33
2022/04/16 07:30:53;;;;;;;15.88;14.73;;;;;;;32.39;63.97;100549.88;5032941;28;70541;-34
2022/04/16 07:33:31;;;;;;;16.67;15.50;;;;;;;32.08;63.93;100515.00;5033644;28;66134;-33
2022/04/16 07:36:02;;;;;;;16.33;15.02;;;;;;;32.35;63.99;100577.75;5020756;28;69574;-34
2022/04/16 07:38:33;;;;;;;15.53;14.53;;;;;;;32.33;63.74;100569.81;5021456;28;65294;-34
2022/04/16 07:41:05;;;;;;;14.80;13.52;;;;;;;32.34;64.30;100551.66;5032858;28;69546;-34
2022/04/16 07:43:36;;;;;;;14.75;13.75;;;;;;;32.21;63.99;100533.75;5027648;28;66705;-33
2022/04/16 07:46:07;;;;;;;14.32;13.52;;;;;;;32.24;64.24;100533.25;5027095;28;70006;-33
2022/04/16 07:48:39;;;;;;;14.73;13.82;;;;;;;32.23;64.28;100528.88;5039349;28;65267;-34
2022/04/16 07:51:09;;;;;;;15.52;14.15;;;;;;;32.24;64.25;100511.56;5032055;28;69661;-33
2022/04/16 07:53:40;;;;;;;14.75;13.45;;;;;;;32.42;63.53;100502.41;5027000;28;65510;-33
2022/04/16 07:56:12;;;;;;;15.43;13.87;;;;;;;32.45;63.22;100472.06;5020800;28;70109;-34
2022/04/16 07:58:43;;;;;;;15.17;14.20;;;;;;;32.61;63.16;100481.38;5019941;28;66560;-33
2022/04/16 08:01:14;;;;;;;15.20;14.30;;;;;;;32.69;62.66;100486.44;5021425;28;70033;-33
2022/04/16 08:03:45;;;;;;;16.33;15.13;;;;;;;32.71;62.57;100481.59;5022251;28;65154;-34
2022/04/16 08:06:16;;;;;;;17.60;16.27;;;;;;;32.77;62.46;100480.63;5032737;28;69179;-34
2022/04/16 08:08:47;;;;;;;19.10;17.23;;;;;;;32.81;62.23;100487.19;5021585;28;67550;-35
2022/04/16 08:11:18;;;;;;;22.90;16.57;;;;;;;32.83;62.25;100490.50;5035782;28;69100;-33
2022/04/16 08:13:50;;;;;;;25.85;20.13;;;;;;;32.55;63.98;100485.06;5023072;28;66080;-33
2022/04/16 08:16:22;;;;;;;23.00;20.77;;;;;;;32.41;64.46;100469.03;5020733;28;69109;-35
2022/04/16 08:18:57;;;;;;;21.92;19.52;;;;;;;32.57;64.04;100455.75;5019333;28;65550;-36
2022/04/16 08:21:30;;;;;;;19.88;17.80;;;;;;;32.63;63.50;100433.09;5034314;28;68960;-34
2022/04/16 08:24:12;;;;;;;21.02;19.13;;;;;;;32.61;63.14;100416.22;5040632;28;65651;-36
2022/04/16 08:26:44;;;;;;;20.80;18.98;;;;;;;32.74;62.87;100428.69;5040361;28;69498;-33
2022/04/16 08:29:15;;;;;;;19.83;18.30;;;;;;;32.63;62.98;100412.19;5038191;28;65793;-34
2022/04/16 08:31:46;;;;;;;21.00;18.95;;;;;;;32.82;62.78;100439.97;5029338;28;70937;-34
2022/04/16 08:34:37;;;;;;;21.27;19.10;;;;;;;32.85;62.77;100450.34;5026798;28;63894;-33
2022/04/16 08:37:08;;;;;;;20.27;18.67;;;;;;;32.86;62.39;100443.84;5026227;28;70328;-35
2022/04/16 08:39:39;;;;;;;23.05;20.70;;;;;;;32.87;62.43;100455.50;5039984;28;65401;-34
2022/04/16 08:42:10;;;;;;;21.20;19.10;;;;;;;32.86;62.43;100460.13;5025408;28;69185;-36
2022/04/16 08:44:41;;;;;;;21.30;18.73;;;;;;;32.88;62.27;100468.88;5036361;28;66193;-34
2022/04/16 08:47:14;;;;;;;22.00;20.20;;;;;;;32.91;62.31;100483.88;5039747;28;70008;-34
2022/04/16 08:49:46;;;;;;;22.50;20.45;;;;;;;32.90;62.26;100502.06;5040670;28;66879;-34
2022/04/16 08:52:18;;;;;;;21.55;19.48;;;;;;;32.91;62.48;100516.47;5039096;28;69919;-35
2022/04/16 10:00:41;;;;;;;18.75;17.08;;;;;;;31.31;66.25;100578.13;5043656;27;43790;-38
2022/04/16 10:03:32;;;;;;;18.88;16.42;;;;;;;31.52;65.91;100607.47;5028075;28;68890;-40
2022/04/16 10:06:03;;;;;;;20.27;18.05;;;;;;;31.62;66.39;100609.59;5024448;28;66518;-40
2022/04/16 10:08:35;;;;;;;19.30;17.40;;;;;;;31.70;66.41;100603.03;5018389;28;68898;-39
2022/04/16 10:11:08;;;;;;;18.08;16.38;;;;;;;31.79;65.99;100598.94;5028596;28;65769;-39
2022/04/16 10:13:45;;;;;;;21.90;19.17;;;;;;;31.50;67.54;100615.00;5027315;28;70763;-39
2022/04/16 10:16:21;;;;;;;20.55;18.75;;;;;;;31.32;67.93;100596.88;5040771;28;66707;-41
2022/04/16 10:18:52;;;;;;;22.33;19.13;;;;;;;31.31;66.87;100564.56;5024931;28;69357;-40
2022/04/16 10:21:23;;;;;;;19.95;17.50;;;;;;;31.57;66.71;100577.78;5024124;28;64684;-40
2022/04/16 10:24:01;;;;;;;26.03;17.03;;;;;;;31.68;66.10;100587.00;5006823;28;70115;-40
2022/04/16 10:26:40;;;;;;;19.98;17.98;;;;;;;31.31;65.52;100513.09;5023902;28;65397;-40
2022/04/16 10:29:19;;;;;;;19.15;17.33;;;;;;;31.86;65.34;100583.34;5026126;28;69238;-41
2022/04/16 10:31:51;;;;;;;18.70;16.55;;;;;;;31.84;65.53;100571.91;5031345;28;65731;-41
2022/04/16 10:34:32;;;;;;;34.58;25.35;;;;;;;31.51;66.06;100535.34;5028127;28;69602;-38
2022/04/16 10:37:07;;;;;;;31.70;24.55;;;;;;;31.77;66.71;100598.31;5022798;28;65253;-37
2022/04/16 10:39:43;;;;;;;24.27;21.15;;;;;;;31.95;66.36;100605.56;5024994;28;69625;-36
2022/04/16 10:42:14;;;;;;;21.65;19.50;;;;;;;31.77;65.82;100560.34;5028016;28;65649;-37
2022/04/16 10:45:09;;;;;;;20.80;18.85;;;;;;;32.10;65.45;100597.00;5060636;28;69880;-37
2022/04/16 10:47:41;;;;;;;21.02;18.85;;;;;;;32.16;65.54;100601.47;5027264;28;65315;-37
2022/04/16 10:50:19;;;;;;;18.45;16.95;;;;;;;32.17;65.32;100608.53;5040044;28;70093;-38
2022/04/16 10:53:00;;;;;;;19.38;17.70;;;;;;;31.85;65.27;100551.88;5043971;28;65767;-37
2022/04/16 10:55:31;;;;;;;18.88;17.08;;;;;;;32.27;65.16;100608.78;5047541;28;69960;-36
2022/04/16 10:58:03;;;;;;;;;;;;;;;31.99;65.68;100618.44;5044508;28;66291;-38
2022/04/16 11:00:45;;;;;;;19.85;16.23;;;;;;;32.27;64.84;100625.06;5036115;28;71240;-40
2022/04/16 11:03:32;;;;;;;15.50;14.45;;;;;;;32.29;64.84;100625.66;5017948;28;66575;-37
2022/04/16 11:06:04;;;;;;;16.98;15.40;;;;;;;31.85;64.74;100551.88;5026801;28;70158;-36
2022/04/16 11:08:39;;;;;;;16.80;15.32;;;;;;;32.38;64.48;100639.69;5033247;28;65535;-37
2022/04/16 11:11:11;;;;;;;15.13;13.93;;;;;;;32.38;64.77;100643.25;5030443;28;70460;-38
2022/04/16 11:13:43;;;;;;;14.55;13.40;;;;;;;32.39;64.42;100639.44;5032254;28;65282;-37
2022/04/16 11:16:24;;;;;;;14.38;13.32;;;;;;;32.08;64.61;100596.38;5024596;28;69772;-38
2022/04/16 11:18:56;;;;;;;14.02;13.02;;;;;;;32.36;64.80;100649.97;5034028;28;65675;-38
2022/04/16 11:21:29;;;;;;;;;;;;;;;32.11;65.15;100653.72;5050937;28;69173;-37
2022/04/16 11:24:05;;;;;;;14.90;13.20;;;;;;;32.26;64.45;100617.97;5060776;28;66609;-36
2022/04/16 11:35:10;;;;;;;14.77;13.45;;;;;;;32.35;64.50;100641.00;5002918;28;65728;-37
2022/04/16 11:37:41;;;;;;;16.80;15.07;;;;;;;32.10;65.57;100645.81;5029318;28;70478;-37
2022/04/16 11:40:13;;;;;;;15.80;14.70;;;;;;;31.93;66.41;100635.66;5032150;28;66116;-38
2022/04/16 11:42:49;;;;;;;15.80;14.60;;;;;;;31.90;67.40;100636.09;5033061;28;69102;-38
2022/04/16 11:45:21;;;;;;;15.13;13.80;;;;;;;31.82;67.47;100631.00;5044509;28;66923;-38
2022/04/16 11:47:53;;;;;;;15.20;13.70;;;;;;;31.30;67.57;100549.38;5025528;28;69188;-35
2022/04/16 11:50:25;;;;;;;16.05;14.65;;;;;;;31.70;68.48;100624.72;5033829;28;65690;-35
2022/04/16 11:52:58;;;;;;;16.75;15.00;;;;;;;31.64;68.24;100621.03;5032344;28;71292;-35
2022/04/16 11:55:31;;;;;;;16.70;15.13;;;;;;;31.57;68.94;100614.91;5037134;28;66518;-35
2022/04/16 11:58:07;;;;;;;16.52;15.00;;;;;;;31.59;68.69;100627.19;5030156;28;70440;-35
2022/04/16 12:00:55;;;;;;;17.52;15.85;;;;;;;31.54;68.85;100627.03;5033784;28;66441;-36
2022/04/16 12:03:41;;;;;;;20.23;15.43;;;;;;;31.50;68.64;100641.28;5020227;28;69459;-36
2022/04/16 12:06:14;;;;;;;16.83;15.23;;;;;;;31.54;68.35;100640.59;5022286;28;66790;-35
2022/04/16 12:08:52;;;;;;;17.88;16.17;;;;;;;30.74;68.49;100516.16;5037599;28;69703;-35
2022/04/16 12:11:27;;;;;;;17.15;15.40;;;;;;;31.48;68.04;100641.53;5040494;28;66795;-35
2022/04/16 12:14:04;;;;;;;17.55;15.73;;;;;;;31.48;67.97;100638.81;5020824;28;70144;-36
2022/04/16 12:16:38;;;;;;;17.38;15.88;;;;;;;31.40;68.00;100631.00;5030449;28;66649;-35
2022/04/16 12:19:16;;;;;;;17.70;16.05;;;;;;;31.54;67.92;100647.91;5041825;28;70306;-35
2022/04/16 12:21:50;;;;;;;18.92;17.20;;;;;;;31.50;68.39;100644.81;5037796;28;65415;-35
2022/04/16 12:24:27;;;;;;;18.52;16.70;;;;;;;31.07;68.80;100572.63;5025114;28;70369;-36
2022/04/16 12:27:01;;;;;;;19.52;17.50;;;;;;;31.51;69.62;100649.19;5027161;28;66554;-35
2022/04/16 12:29:35;;;;;;;25.67;17.60;;;;;;;31.53;69.86;100643.53;5021115;28;70235;-36
2022/04/16 12:32:08;;;;;;;21.10;17.23;;;;;;;31.58;70.25;100641.78;5021742;28;66876;-36
2022/04/16 12:34:45;;;;;;;25.95;18.92;;;;;;;31.59;69.83;100648.88;5018055;28;69505;-34
2022/04/16 12:37:20;;;;;;;21.45;17.88;;;;;;;31.56;69.67;100654.72;5026662;28;65975;-35
2022/04/16 12:39:53;;;;;;;19.02;17.33;;;;;;;31.46;69.53;100629.25;5019854;28;70133;-35
2022/04/16 12:42:35;;;;;;;23.42;19.10;;;;;;;31.59;69.30;100648.88;5020865;28;65385;-36
2022/04/16 12:45:14;;;;;;;21.13;19.08;;;;;;;31.57;69.55;100659.13;5040474;28;69946;-34
2022/04/16 12:47:54;;;;;;;22.15;20.08;;;;;;;31.58;69.33;100666.19;5021847;28;65686;-35
2022/04/16 12:50:38;;;;;;;20.13;18.08;;;;;;;31.51;69.44;100670.88;5039375;28;69864;-35
2022/04/16 12:53:17;;;;;;;21.92;19.60;;;;;;;31.58;69.73;100677.03;5040855;28;66868;-37
2022/04/16 12:56:03;;;;;;;25.98;21.15;;;;;;;31.54;69.91;100689.41;5027677;28;70372;-34
2022/04/16 12:58:36;;;;;;;23.15;21.05;;;;;;;31.54;70.21;100680.44;5027919;28;65530;-35
2022/04/16 13:01:08;;;;;;;27.85;21.90;;;;;;;31.59;70.10;100694.97;5034671;28;69753;-36
2022/04/16 13:03:47;;;;;;;24.70;21.88;;;;;;;31.62;70.59;100699.06;5035394;28;66090;-36
2022/04/16 13:06:26;;;;;;;32.10;21.48;;;;;;;31.48;70.65;100676.75;5037522;28;69691;-36